sensor_id;sensor_type;location;lat;lon;timestamp;pressure;altitude;pressure_sealevel;temperature;humidity
71938;BME280;59810;48.800;9.086;2023-05-19T00:01:12;98132.72;;;10.71;67.19
71938;BME280;59810;48.800;9.086;2023-05-19T00:03:51;98131.31;;;10.69;67.05
71938;BME280;59810;48.800;9.086;2023-05-19T00:06:23;98129.78;;;10.73;66.75
71938;BME280;59810;48.800;9.086;2023-05-19T00:08:55;98126.50;;;10.71;68.64
71938;BME280;59810;48.800;9.086;2023-05-19T00:11:24;98124.31;;;10.56;69.88
71938;BME280;59810;48.800;9.086;2023-05-19T00:13:56;98120.34;;;10.47;68.80
71938;BME280;59810;48.800;9.086;2023-05-19T00:16:24;98126.56;;;10.36;67.93
71938;BME280;59810;48.800;9.086;2023-05-19T00:18:49;98126.69;;;10.41;68.11
71938;BME280;59810;48.800;9.086;2023-05-19T00:21:18;98122.94;;;10.42;68.00
71938;BME280;59810;48.800;9.086;2023-05-19T00:23:44;98124.19;;;10.39;68.21
71938;BME280;59810;48.800;9.086;2023-05-19T00:26:10;98122.56;;;10.38;67.92
71938;BME280;59810;48.800;9.086;2023-05-19T00:28:35;98120.69;;;10.39;67.30
71938;BME280;59810;48.800;9.086;2023-05-19T00:31:04;98117.53;;;10.42;67.35
71938;BME280;59810;48.800;9.086;2023-05-19T00:33:29;98118.22;;;10.37;68.19
71938;BME280;59810;48.800;9.086;2023-05-19T00:35:55;98112.00;;;10.37;69.35
71938;BME280;59810;48.800;9.086;2023-05-19T00:38:20;98114.69;;;10.37;68.48
71938;BME280;59810;48.800;9.086;2023-05-19T00:40:47;98117.97;;;10.39;67.24
71938;BME280;59810;48.800;9.086;2023-05-19T00:43:13;98116.91;;;10.40;68.29
71938;BME280;59810;48.800;9.086;2023-05-19T00:45:41;98112.59;;;10.39;68.60
71938;BME280;59810;48.800;9.086;2023-05-19T00:48:06;98116.47;;;10.43;67.95
71938;BME280;59810;48.800;9.086;2023-05-19T00:50:34;98111.31;;;10.29;69.65
71938;BME280;59810;48.800;9.086;2023-05-19T00:53:05;98112.13;;;10.18;70.91
71938;BME280;59810;48.800;9.086;2023-05-19T00:55:36;98104.75;;;10.25;69.52
71938;BME280;59810;48.800;9.086;2023-05-19T00:58:03;98118.47;;;10.12;70.05
71938;BME280;59810;48.800;9.086;2023-05-19T01:00:32;98109.78;;;10.10;71.66
71938;BME280;59810;48.800;9.086;2023-05-19T01:02:58;98108.56;;;10.06;71.04
71938;BME280;59810;48.800;9.086;2023-05-19T01:05:23;98106.84;;;10.12;70.20
71938;BME280;59810;48.800;9.086;2023-05-19T01:07:53;98106.13;;;10.16;70.01
71938;BME280;59810;48.800;9.086;2023-05-19T01:10:20;98101.09;;;10.08;71.86
71938;BME280;59810;48.800;9.086;2023-05-19T01:12:46;98098.16;;;9.98;71.94
71938;BME280;59810;48.800;9.086;2023-05-19T01:15:15;98100.50;;;9.83;72.03
71938;BME280;59810;48.800;9.086;2023-05-19T01:17:52;98101.56;;;9.93;71.51
71938;BME280;59810;48.800;9.086;2023-05-19T01:20:39;98100.03;;;9.97;71.69
71938;BME280;59810;48.800;9.086;2023-05-19T01:23:32;98108.72;;;9.88;73.37
71938;BME280;59810;48.800;9.086;2023-05-19T01:31:25;98117.16;;;10.03;70.96
71938;BME280;59810;48.800;9.086;2023-05-19T01:33:52;98119.50;;;10.11;71.14
71938;BME280;59810;48.800;9.086;2023-05-19T01:36:18;98119.63;;;10.16;70.59
71938;BME280;59810;48.800;9.086;2023-05-19T01:38:47;98112.13;;;10.18;71.18
71938;BME280;59810;48.800;9.086;2023-05-19T01:41:17;98115.44;;;10.20;71.27
71938;BME280;59810;48.800;9.086;2023-05-19T01:43:43;98116.25;;;10.21;70.76
71938;BME280;59810;48.800;9.086;2023-05-19T01:46:08;98112.72;;;10.20;71.05
71938;BME280;59810;48.800;9.086;2023-05-19T01:48:37;98110.72;;;10.16;70.33
71938;BME280;59810;48.800;9.086;2023-05-19T01:51:02;98108.34;;;10.19;70.33
71938;BME280;59810;48.800;9.086;2023-05-19T01:53:28;98109.41;;;10.18;70.19
71938;BME280;59810;48.800;9.086;2023-05-19T01:55:54;98106.03;;;10.23;70.02
71938;BME280;59810;48.800;9.086;2023-05-19T01:58:45;98102.03;;;10.25;69.60
71938;BME280;59810;48.800;9.086;2023-05-19T02:07:14;98111.06;;;10.19;70.37
71938;BME280;59810;48.800;9.086;2023-05-19T02:09:59;98107.19;;;10.15;70.57
71938;BME280;59810;48.800;9.086;2023-05-19T02:12:33;98109.88;;;10.15;70.95
71938;BME280;59810;48.800;9.086;2023-05-19T02:17:34;98109.06;;;10.03;71.10
71938;BME280;59810;48.800;9.086;2023-05-19T02:20:01;98111.75;;;10.03;71.49
71938;BME280;59810;48.800;9.086;2023-05-19T02:22:28;98112.69;;;9.85;73.01
71938;BME280;59810;48.800;9.086;2023-05-19T02:24:54;98117.38;;;9.78;73.55
71938;BME280;59810;48.800;9.086;2023-05-19T02:27:21;98105.78;;;9.78;74.02
71938;BME280;59810;48.800;9.086;2023-05-19T02:29:46;98112.66;;;9.74;74.83
71938;BME280;59810;48.800;9.086;2023-05-19T02:32:14;98113.13;;;9.71;73.60
71938;BME280;59810;48.800;9.086;2023-05-19T02:34:42;98114.31;;;9.75;73.09
71938;BME280;59810;48.800;9.086;2023-05-19T02:37:12;98115.97;;;9.76;74.00
71938;BME280;59810;48.800;9.086;2023-05-19T02:39:40;98119.56;;;9.70;72.23
71938;BME280;59810;48.800;9.086;2023-05-19T02:42:07;98121.81;;;9.73;72.46
71938;BME280;59810;48.800;9.086;2023-05-19T02:44:33;98114.19;;;9.70;72.92
71938;BME280;59810;48.800;9.086;2023-05-19T02:46:58;98109.16;;;9.73;72.91
71938;BME280;59810;48.800;9.086;2023-05-19T02:49:26;98108.19;;;9.67;74.24
71938;BME280;59810;48.800;9.086;2023-05-19T02:51:54;98110.91;;;9.67;71.88
71938;BME280;59810;48.800;9.086;2023-05-19T02:54:20;98102.34;;;9.59;71.38
71938;BME280;59810;48.800;9.086;2023-05-19T02:56:45;98098.81;;;9.58;71.04
71938;BME280;59810;48.800;9.086;2023-05-19T02:59:11;98096.47;;;9.50;72.17
71938;BME280;59810;48.800;9.086;2023-05-19T03:01:36;98092.25;;;9.54;73.11
71938;BME280;59810;48.800;9.086;2023-05-19T03:04:02;98092.47;;;9.53;72.81
71938;BME280;59810;48.800;9.086;2023-05-19T03:06:27;98086.63;;;9.56;72.93
71938;BME280;59810;48.800;9.086;2023-05-19T03:08:53;98084.16;;;9.54;73.70
71938;BME280;59810;48.800;9.086;2023-05-19T03:11:18;98087.31;;;9.51;72.79
71938;BME280;59810;48.800;9.086;2023-05-19T03:13:44;98089.78;;;9.53;72.50
71938;BME280;59810;48.800;9.086;2023-05-19T03:16:10;98091.38;;;9.42;72.54
71938;BME280;59810;48.800;9.086;2023-05-19T03:18:37;98083.91;;;9.44;73.01
71938;BME280;59810;48.800;9.086;2023-05-19T03:21:02;98094.81;;;9.49;72.27
71938;BME280;59810;48.800;9.086;2023-05-19T03:23:27;98088.09;;;9.40;72.70
71938;BME280;59810;48.800;9.086;2023-05-19T03:25:53;98088.69;;;9.42;73.07
71938;BME280;59810;48.800;9.086;2023-05-19T03:28:20;98084.47;;;9.34;73.46
71938;BME280;59810;48.800;9.086;2023-05-19T03:30:45;98082.00;;;9.33;73.33
71938;BME280;59810;48.800;9.086;2023-05-19T03:33:14;98093.13;;;9.36;72.73
71938;BME280;59810;48.800;9.086;2023-05-19T03:35:39;98087.13;;;9.23;73.32
71938;BME280;59810;48.800;9.086;2023-05-19T03:38:04;98089.38;;;9.26;73.29
71938;BME280;59810;48.800;9.086;2023-05-19T03:40:30;98095.81;;;9.25;73.02
71938;BME280;59810;48.800;9.086;2023-05-19T03:42:55;98096.28;;;9.22;73.66
71938;BME280;59810;48.800;9.086;2023-05-19T03:45:25;98088.28;;;9.15;75.64
71938;BME280;59810;48.800;9.086;2023-05-19T03:47:52;98089.69;;;9.18;74.97
71938;BME280;59810;48.800;9.086;2023-05-19T03:50:18;98095.44;;;9.21;74.19
71938;BME280;59810;48.800;9.086;2023-05-19T03:52:46;98093.56;;;9.22;74.00
71938;BME280;59810;48.800;9.086;2023-05-19T03:55:13;98091.34;;;9.19;74.58
71938;BME280;59810;48.800;9.086;2023-05-19T03:57:39;98094.41;;;9.22;74.57
71938;BME280;59810;48.800;9.086;2023-05-19T04:00:06;98100.16;;;9.26;75.10
71938;BME280;59810;48.800;9.086;2023-05-19T04:02:34;98101.78;;;9.27;74.95
71938;BME280;59810;48.800;9.086;2023-05-19T04:07:30;98105.88;;;9.18;76.36
71938;BME280;59810;48.800;9.086;2023-05-19T04:09:58;98108.69;;;9.23;76.21
71938;BME280;59810;48.800;9.086;2023-05-19T04:12:23;98102.59;;;9.16;76.22
71938;BME280;59810;48.800;9.086;2023-05-19T04:14:50;98107.97;;;9.16;76.55
71938;BME280;59810;48.800;9.086;2023-05-19T04:17:16;98111.41;;;9.04;77.25
71938;BME280;59810;48.800;9.086;2023-05-19T04:19:41;98111.34;;;8.81;78.23
71938;BME280;59810;48.800;9.086;2023-05-19T04:22:09;98112.75;;;8.84;78.55
71938;BME280;59810;48.800;9.086;2023-05-19T04:24:34;98117.00;;;8.91;76.91
71938;BME280;59810;48.800;9.086;2023-05-19T04:27:00;98113.03;;;8.94;78.15
71938;BME280;59810;48.800;9.086;2023-05-19T04:29:30;98112.78;;;8.95;77.23
71938;BME280;59810;48.800;9.086;2023-05-19T04:31:56;98107.78;;;8.99;77.35
71938;BME280;59810;48.800;9.086;2023-05-19T04:34:27;98108.50;;;9.06;77.27
71938;BME280;59810;48.800;9.086;2023-05-19T04:36:53;98111.94;;;9.13;76.35
71938;BME280;59810;48.800;9.086;2023-05-19T04:39:21;98118.97;;;9.14;76.14
71938;BME280;59810;48.800;9.086;2023-05-19T04:41:48;98115.59;;;9.19;76.05
71938;BME280;59810;48.800;9.086;2023-05-19T04:44:13;98115.00;;;9.17;76.34
71938;BME280;59810;48.800;9.086;2023-05-19T04:46:44;98112.91;;;9.19;76.72
71938;BME280;59810;48.800;9.086;2023-05-19T04:49:10;98112.91;;;9.19;77.46
71938;BME280;59810;48.800;9.086;2023-05-19T04:51:39;98114.91;;;9.23;75.69
71938;BME280;59810;48.800;9.086;2023-05-19T04:54:08;98111.63;;;9.21;75.59
71938;BME280;59810;48.800;9.086;2023-05-19T04:56:34;98119.78;;;9.15;75.90
71938;BME280;59810;48.800;9.086;2023-05-19T04:59:02;98112.66;;;9.20;74.46
71938;BME280;59810;48.800;9.086;2023-05-19T05:01:30;98122.03;;;9.18;74.85
71938;BME280;59810;48.800;9.086;2023-05-19T05:04:00;98118.66;;;9.22;74.08
71938;BME280;59810;48.800;9.086;2023-05-19T05:06:26;98119.09;;;9.19;74.33
71938;BME280;59810;48.800;9.086;2023-05-19T05:08:52;98122.16;;;9.23;74.77
71938;BME280;59810;48.800;9.086;2023-05-19T05:11:18;98122.63;;;9.20;75.11
71938;BME280;59810;48.800;9.086;2023-05-19T05:13:44;98121.25;;;9.29;73.53
71938;BME280;59810;48.800;9.086;2023-05-19T05:16:10;98116.91;;;9.28;75.90
71938;BME280;59810;48.800;9.086;2023-05-19T05:18:35;98111.50;;;9.28;76.19
71938;BME280;59810;48.800;9.086;2023-05-19T05:21:03;98119.97;;;9.31;75.86
71938;BME280;59810;48.800;9.086;2023-05-19T05:23:28;98112.94;;;9.42;74.56
71938;BME280;59810;48.800;9.086;2023-05-19T05:25:54;98110.25;;;9.42;74.58
71938;BME280;59810;48.800;9.086;2023-05-19T05:28:20;98114.88;;;9.53;74.90
71938;BME280;59810;48.800;9.086;2023-05-19T05:30:45;98114.28;;;9.51;73.65
71938;BME280;59810;48.800;9.086;2023-05-19T05:33:11;98109.34;;;9.48;73.12
71938;BME280;59810;48.800;9.086;2023-05-19T05:35:37;98109.94;;;9.50;73.07
71938;BME280;59810;48.800;9.086;2023-05-19T05:38:02;98112.06;;;9.48;73.20
71938;BME280;59810;48.800;9.086;2023-05-19T05:40:32;98116.25;;;9.44;73.83
71938;BME280;59810;48.800;9.086;2023-05-19T05:42:58;98113.75;;;9.43;73.67
71938;BME280;59810;48.800;9.086;2023-05-19T05:45:27;98111.47;;;9.46;73.01
71938;BME280;59810;48.800;9.086;2023-05-19T05:47:53;98118.13;;;9.44;73.06
71938;BME280;59810;48.800;9.086;2023-05-19T05:50:21;98121.50;;;9.39;73.26
71938;BME280;59810;48.800;9.086;2023-05-19T05:52:47;98128.28;;;9.42;74.73
71938;BME280;59810;48.800;9.086;2023-05-19T05:55:15;98120.59;;;9.45;74.06
71938;BME280;59810;48.800;9.086;2023-05-19T05:57:44;98119.91;;;9.50;74.14
71938;BME280;59810;48.800;9.086;2023-05-19T06:00:09;98127.28;;;9.54;73.60
71938;BME280;59810;48.800;9.086;2023-05-19T06:02:41;98122.84;;;9.60;73.74
71938;BME280;59810;48.800;9.086;2023-05-19T06:05:10;98124.84;;;9.64;73.84
71938;BME280;59810;48.800;9.086;2023-05-19T06:07:39;98120.63;;;9.68;74.56
71938;BME280;59810;48.800;9.086;2023-05-19T06:10:08;98117.81;;;9.75;74.67
71938;BME280;59810;48.800;9.086;2023-05-19T06:12:34;98119.97;;;9.85;73.33
71938;BME280;59810;48.800;9.086;2023-05-19T06:15:03;98121.84;;;9.96;73.54
71938;BME280;59810;48.800;9.086;2023-05-19T06:17:28;98115.25;;;10.04;73.09
71938;BME280;59810;48.800;9.086;2023-05-19T06:19:54;98117.63;;;10.12;72.56
71938;BME280;59810;48.800;9.086;2023-05-19T06:22:19;98114.00;;;10.18;73.21
71938;BME280;59810;48.800;9.086;2023-05-19T06:24:47;98112.94;;;10.31;72.18
71938;BME280;59810;48.800;9.086;2023-05-19T06:27:12;98112.13;;;10.42;71.68
71938;BME280;59810;48.800;9.086;2023-05-19T06:29:37;98106.47;;;10.55;70.61
71938;BME280;59810;48.800;9.086;2023-05-19T06:32:03;98108.91;;;10.68;70.57
71938;BME280;59810;48.800;9.086;2023-05-19T06:34:28;98107.59;;;10.82;70.31
71938;BME280;59810;48.800;9.086;2023-05-19T06:36:54;98110.97;;;10.89;69.67
71938;BME280;59810;48.800;9.086;2023-05-19T06:39:19;98108.44;;;11.00;70.01
71938;BME280;59810;48.800;9.086;2023-05-19T06:41:47;98112.44;;;11.09;68.27
71938;BME280;59810;48.800;9.086;2023-05-19T06:44:12;98107.69;;;11.16;68.24
71938;BME280;59810;48.800;9.086;2023-05-19T06:46:38;98105.56;;;11.18;68.18
71938;BME280;59810;48.800;9.086;2023-05-19T06:49:03;98100.25;;;11.23;68.86
71938;BME280;59810;48.800;9.086;2023-05-19T06:51:31;98110.09;;;11.29;68.20
71938;BME280;59810;48.800;9.086;2023-05-19T06:53:56;98101.97;;;11.29;67.83
71938;BME280;59810;48.800;9.086;2023-05-19T06:56:26;98098.41;;;11.40;68.85
71938;BME280;59810;48.800;9.086;2023-05-19T06:58:52;98091.44;;;11.44;67.72
71938;BME280;59810;48.800;9.086;2023-05-19T07:01:17;98104.41;;;11.59;69.49
71938;BME280;59810;48.800;9.086;2023-05-19T07:03:42;98105.16;;;11.71;68.89
71938;BME280;59810;48.800;9.086;2023-05-19T07:06:08;98102.31;;;11.78;67.84
71938;BME280;59810;48.800;9.086;2023-05-19T07:08:33;98103.63;;;11.92;67.40
71938;BME280;59810;48.800;9.086;2023-05-19T07:11:01;98096.47;;;12.03;68.02
71938;BME280;59810;48.800;9.086;2023-05-19T07:13:29;98099.91;;;12.15;66.48
71938;BME280;59810;48.800;9.086;2023-05-19T07:15:54;98098.59;;;12.18;66.08
71938;BME280;59810;48.800;9.086;2023-05-19T07:18:23;98105.66;;;12.19;65.75
71938;BME280;59810;48.800;9.086;2023-05-19T07:20:50;98100.38;;;12.29;66.80
71938;BME280;59810;48.800;9.086;2023-05-19T07:23:16;98092.31;;;12.34;66.19
71938;BME280;59810;48.800;9.086;2023-05-19T07:25:41;98090.53;;;12.39;66.27
71938;BME280;59810;48.800;9.086;2023-05-19T07:28:06;98091.97;;;12.47;66.97
71938;BME280;59810;48.800;9.086;2023-05-19T07:30:34;98093.88;;;12.46;66.05
71938;BME280;59810;48.800;9.086;2023-05-19T07:33:00;98091.59;;;12.60;65.53
71938;BME280;59810;48.800;9.086;2023-05-19T07:35:31;98098.66;;;12.61;64.74
71938;BME280;59810;48.800;9.086;2023-05-19T07:37:56;98091.84;;;12.59;64.89
71938;BME280;59810;48.800;9.086;2023-05-19T07:40:22;98092.59;;;12.54;64.92
71938;BME280;59810;48.800;9.086;2023-05-19T07:42:48;98092.41;;;12.61;65.04
71938;BME280;59810;48.800;9.086;2023-05-19T07:45:13;98095.44;;;12.64;65.30
71938;BME280;59810;48.800;9.086;2023-05-19T07:47:39;98092.72;;;12.64;64.93
71938;BME280;59810;48.800;9.086;2023-05-19T07:50:08;98085.09;;;12.61;64.29
71938;BME280;59810;48.800;9.086;2023-05-19T07:52:33;98083.53;;;12.65;64.29
71938;BME280;59810;48.800;9.086;2023-05-19T07:54:59;98091.88;;;12.81;64.35
71938;BME280;59810;48.800;9.086;2023-05-19T07:57:27;98085.56;;;12.75;63.60
71938;BME280;59810;48.800;9.086;2023-05-19T07:59:52;98077.25;;;12.82;63.85
71938;BME280;59810;48.800;9.086;2023-05-19T08:02:17;98090.59;;;12.88;64.43
71938;BME280;59810;48.800;9.086;2023-05-19T08:04:45;98076.91;;;13.00;63.48
71938;BME280;59810;48.800;9.086;2023-05-19T08:07:12;98074.78;;;13.02;63.31
71938;BME280;59810;48.800;9.086;2023-05-19T08:09:38;98081.06;;;13.07;61.83
71938;BME280;59810;48.800;9.086;2023-05-19T08:12:03;98074.88;;;13.12;62.18
71938;BME280;59810;48.800;9.086;2023-05-19T08:14:29;98077.53;;;13.07;62.31
71938;BME280;59810;48.800;9.086;2023-05-19T08:16:57;98074.25;;;13.05;61.54
71938;BME280;59810;48.800;9.086;2023-05-19T08:19:23;98071.16;;;13.18;64.71
71938;BME280;59810;48.800;9.086;2023-05-19T08:21:48;98070.81;;;13.36;68.25
71938;BME280;59810;48.800;9.086;2023-05-19T08:24:16;98073.03;;;13.39;61.80
71938;BME280;59810;48.800;9.086;2023-05-19T08:26:42;98068.84;;;13.59;64.82
71938;BME280;59810;48.800;9.086;2023-05-19T08:29:08;98064.25;;;13.64;63.11
71938;BME280;59810;48.800;9.086;2023-05-19T08:31:33;98066.00;;;13.76;63.86
71938;BME280;59810;48.800;9.086;2023-05-19T08:34:01;98060.88;;;13.79;62.99
71938;BME280;59810;48.800;9.086;2023-05-19T08:36:27;98056.06;;;13.91;62.52
71938;BME280;59810;48.800;9.086;2023-05-19T08:38:53;98059.31;;;13.88;60.69
71938;BME280;59810;48.800;9.086;2023-05-19T08:41:21;98063.06;;;13.50;59.90
71938;BME280;59810;48.800;9.086;2023-05-19T08:43:48;98068.88;;;13.64;61.49
71938;BME280;59810;48.800;9.086;2023-05-19T08:46:15;98066.22;;;13.69;63.44
71938;BME280;59810;48.800;9.086;2023-05-19T08:48:41;98059.19;;;13.73;62.92
71938;BME280;59810;48.800;9.086;2023-05-19T08:51:29;98068.91;;;14.01;62.41
71938;BME280;59810;48.800;9.086;2023-05-19T08:54:15;98051.28;;;14.04;62.38
71938;BME280;59810;48.800;9.086;2023-05-19T08:56:43;98059.34;;;13.93;59.73
71938;BME280;59810;48.800;9.086;2023-05-19T08:59:10;98058.47;;;13.88;60.58
71938;BME280;59810;48.800;9.086;2023-05-19T09:01:36;98060.56;;;13.76;59.75
71938;BME280;59810;48.800;9.086;2023-05-19T09:04:03;98057.97;;;13.59;60.05
71938;BME280;59810;48.800;9.086;2023-05-19T09:06:30;98051.84;;;13.68;60.75
71938;BME280;59810;48.800;9.086;2023-05-19T09:08:56;98051.88;;;13.74;60.21
71938;BME280;59810;48.800;9.086;2023-05-19T09:11:22;98056.38;;;13.63;59.97
71938;BME280;59810;48.800;9.086;2023-05-19T09:13:50;98053.94;;;13.61;60.47
71938;BME280;59810;48.800;9.086;2023-05-19T09:16:16;98061.31;;;13.66;61.77
71938;BME280;59810;48.800;9.086;2023-05-19T09:18:53;98055.66;;;13.73;61.44
71938;BME280;59810;48.800;9.086;2023-05-19T09:21:26;98054.09;;;13.82;60.58
71938;BME280;59810;48.800;9.086;2023-05-19T09:23:52;98057.06;;;13.80;59.49
71938;BME280;59810;48.800;9.086;2023-05-19T09:26:20;98059.75;;;13.75;60.17
71938;BME280;59810;48.800;9.086;2023-05-19T09:28:47;98061.13;;;13.78;60.54
71938;BME280;59810;48.800;9.086;2023-05-19T09:31:13;98064.06;;;13.71;60.46
71938;BME280;59810;48.800;9.086;2023-05-19T09:33:40;98068.28;;;13.57;60.18
71938;BME280;59810;48.800;9.086;2023-05-19T09:36:11;98065.25;;;13.53;59.87
71938;BME280;59810;48.800;9.086;2023-05-19T09:38:37;98060.00;;;13.42;60.44
71938;BME280;59810;48.800;9.086;2023-05-19T09:41:04;98060.63;;;13.49;61.40
71938;BME280;59810;48.800;9.086;2023-05-19T09:43:31;98062.56;;;13.53;61.49
71938;BME280;59810;48.800;9.086;2023-05-19T09:46:08;98063.28;;;13.44;61.39
71938;BME280;59810;48.800;9.086;2023-05-19T09:48:35;98055.28;;;13.32;60.89
71938;BME280;59810;48.800;9.086;2023-05-19T09:51:02;98052.41;;;13.38;61.50
71938;BME280;59810;48.800;9.086;2023-05-19T09:53:29;98056.78;;;13.45;60.65
71938;BME280;59810;48.800;9.086;2023-05-19T09:55:57;98054.16;;;13.55;61.12
71938;BME280;59810;48.800;9.086;2023-05-19T09:58:23;98046.06;;;13.60;59.68
71938;BME280;59810;48.800;9.086;2023-05-19T10:00:49;98050.47;;;13.66;61.33
71938;BME280;59810;48.800;9.086;2023-05-19T10:03:15;98044.00;;;13.72;61.04
71938;BME280;59810;48.800;9.086;2023-05-19T10:05:42;98037.78;;;13.77;59.63
71938;BME280;59810;48.800;9.086;2023-05-19T10:08:07;98036.47;;;13.84;60.79
71938;BME280;59810;48.800;9.086;2023-05-19T10:10:35;98039.00;;;13.96;60.53
71938;BME280;59810;48.800;9.086;2023-05-19T10:13:04;98049.81;;;13.91;58.84
71938;BME280;59810;48.800;9.086;2023-05-19T10:15:30;98042.59;;;14.07;59.66
71938;BME280;59810;48.800;9.086;2023-05-19T10:17:56;98041.03;;;14.16;59.11
71938;BME280;59810;48.800;9.086;2023-05-19T10:20:25;98045.28;;;14.01;58.04
71938;BME280;59810;48.800;9.086;2023-05-19T10:22:50;98050.94;;;13.95;59.91
71938;BME280;59810;48.800;9.086;2023-05-19T10:25:18;98044.59;;;13.79;59.51
71938;BME280;59810;48.800;9.086;2023-05-19T10:27:54;98041.91;;;13.84;62.51
71938;BME280;59810;48.800;9.086;2023-05-19T10:30:29;98047.09;;;13.91;61.04
71938;BME280;59810;48.800;9.086;2023-05-19T10:32:56;98035.50;;;14.00;60.00
71938;BME280;59810;48.800;9.086;2023-05-19T10:38:10;98046.84;;;13.92;58.96
71938;BME280;59810;48.800;9.086;2023-05-19T10:40:42;98049.56;;;13.92;58.82
71938;BME280;59810;48.800;9.086;2023-05-19T10:43:35;98038.16;;;13.95;58.12
71938;BME280;59810;48.800;9.086;2023-05-19T10:46:03;98033.63;;;14.01;58.81
71938;BME280;59810;48.800;9.086;2023-05-19T10:48:32;98041.25;;;14.04;58.58
71938;BME280;59810;48.800;9.086;2023-05-19T10:50:58;98031.22;;;14.10;58.67
71938;BME280;59810;48.800;9.086;2023-05-19T10:53:30;98036.38;;;14.11;58.93
71938;BME280;59810;48.800;9.086;2023-05-19T10:55:55;98038.06;;;14.22;59.63
71938;BME280;59810;48.800;9.086;2023-05-19T11:01:13;98028.84;;;14.23;59.27
71938;BME280;59810;48.800;9.086;2023-05-19T11:03:49;98035.38;;;14.27;59.95
71938;BME280;59810;48.800;9.086;2023-05-19T11:08:45;98030.16;;;14.16;58.41
71938;BME280;59810;48.800;9.086;2023-05-19T11:11:17;98040.88;;;14.38;61.84
71938;BME280;59810;48.800;9.086;2023-05-19T11:13:49;98043.34;;;14.39;61.30
71938;BME280;59810;48.800;9.086;2023-05-19T11:16:18;98045.66;;;14.20;58.60
71938;BME280;59810;48.800;9.086;2023-05-19T11:18:47;98042.94;;;14.20;60.05
71938;BME280;59810;48.800;9.086;2023-05-19T11:21:13;98039.91;;;14.12;58.18
71938;BME280;59810;48.800;9.086;2023-05-19T11:23:38;98036.94;;;14.13;60.80
71938;BME280;59810;48.800;9.086;2023-05-19T11:26:05;98031.38;;;13.93;58.94
71938;BME280;59810;48.800;9.086;2023-05-19T11:28:32;98030.00;;;13.90;59.85
71938;BME280;59810;48.800;9.086;2023-05-19T11:30:59;98035.91;;;13.82;59.80
71938;BME280;59810;48.800;9.086;2023-05-19T11:33:26;98035.34;;;13.75;59.94
71938;BME280;59810;48.800;9.086;2023-05-19T11:35:55;98035.41;;;13.85;59.76
71938;BME280;59810;48.800;9.086;2023-05-19T11:38:25;98031.00;;;13.79;59.46
71938;BME280;59810;48.800;9.086;2023-05-19T11:40:55;98033.22;;;13.82;58.96
71938;BME280;59810;48.800;9.086;2023-05-19T11:43:26;98028.09;;;13.91;59.80
71938;BME280;59810;48.800;9.086;2023-05-19T11:45:54;98027.09;;;14.02;60.29
71938;BME280;59810;48.800;9.086;2023-05-19T11:48:22;98025.53;;;14.16;59.97
71938;BME280;59810;48.800;9.086;2023-05-19T11:50:49;98023.66;;;14.17;58.89
71938;BME280;59810;48.800;9.086;2023-05-19T11:53:14;98024.22;;;14.24;59.24
71938;BME280;59810;48.800;9.086;2023-05-19T11:55:47;98022.66;;;14.33;58.98
71938;BME280;59810;48.800;9.086;2023-05-19T11:58:12;98016.16;;;14.39;59.29
71938;BME280;59810;48.800;9.086;2023-05-19T12:00:39;98018.31;;;14.32;59.50
71938;BME280;59810;48.800;9.086;2023-05-19T12:03:05;98017.19;;;14.28;59.08
71938;BME280;59810;48.800;9.086;2023-05-19T12:05:31;98010.16;;;14.32;59.74
71938;BME280;59810;48.800;9.086;2023-05-19T12:07:59;98012.88;;;14.32;58.25
71938;BME280;59810;48.800;9.086;2023-05-19T12:10:26;98008.75;;;14.29;58.41
71938;BME280;59810;48.800;9.086;2023-05-19T12:12:53;98015.34;;;14.39;58.92
71938;BME280;59810;48.800;9.086;2023-05-19T12:15:22;98021.06;;;14.42;59.41
71938;BME280;59810;48.800;9.086;2023-05-19T12:17:48;98016.16;;;14.39;58.99
71938;BME280;59810;48.800;9.086;2023-05-19T12:20:16;98015.09;;;14.40;58.48
71938;BME280;59810;48.800;9.086;2023-05-19T12:22:42;98017.31;;;14.43;58.32
71938;BME280;59810;48.800;9.086;2023-05-19T12:25:08;98019.78;;;14.60;59.60
71938;BME280;59810;48.800;9.086;2023-05-19T12:27:35;98014.69;;;14.69;59.83
71938;BME280;59810;48.800;9.086;2023-05-19T12:30:03;98024.47;;;14.70;59.40
71938;BME280;59810;48.800;9.086;2023-05-19T12:32:32;98018.50;;;14.78;58.67
71938;BME280;59810;48.800;9.086;2023-05-19T12:35:04;98026.13;;;14.76;58.91
71938;BME280;59810;48.800;9.086;2023-05-19T12:37:32;98022.78;;;14.58;58.64
71938;BME280;59810;48.800;9.086;2023-05-19T12:40:01;98027.19;;;14.70;57.81
71938;BME280;59810;48.800;9.086;2023-05-19T12:42:28;98028.31;;;14.79;58.63
71938;BME280;59810;48.800;9.086;2023-05-19T12:45:03;98025.59;;;14.79;59.69
71938;BME280;59810;48.800;9.086;2023-05-19T12:47:34;98026.09;;;14.66;57.49
71938;BME280;59810;48.800;9.086;2023-05-19T12:52:30;98018.44;;;14.62;57.49
71938;BME280;59810;48.800;9.086;2023-05-19T12:55:06;98026.50;;;14.42;58.38
71938;BME280;59810;48.800;9.086;2023-05-19T12:57:33;98020.53;;;14.40;57.79
71938;BME280;59810;48.800;9.086;2023-05-19T13:00:20;98025.88;;;14.30;58.73
71938;BME280;59810;48.800;9.086;2023-05-19T13:02:59;98025.84;;;14.25;59.17
71938;BME280;59810;48.800;9.086;2023-05-19T13:05:26;98030.75;;;14.23;58.34
71938;BME280;59810;48.800;9.086;2023-05-19T13:08:03;98032.34;;;14.19;59.29
71938;BME280;59810;48.800;9.086;2023-05-19T13:10:29;98028.53;;;14.15;58.86
71938;BME280;59810;48.800;9.086;2023-05-19T13:12:57;98024.13;;;14.04;58.59
71938;BME280;59810;48.800;9.086;2023-05-19T13:15:25;98020.78;;;13.91;58.65
71938;BME280;59810;48.800;9.086;2023-05-19T13:17:51;98020.19;;;13.84;60.96
71938;BME280;59810;48.800;9.086;2023-05-19T13:20:17;98013.66;;;13.80;60.60
71938;BME280;59810;48.800;9.086;2023-05-19T13:22:43;98004.44;;;13.81;60.46
71938;BME280;59810;48.800;9.086;2023-05-19T13:25:08;98009.88;;;13.86;61.29
71938;BME280;59810;48.800;9.086;2023-05-19T13:27:36;98007.19;;;13.91;60.82
71938;BME280;59810;48.800;9.086;2023-05-19T13:30:05;98007.50;;;13.95;60.64
71938;BME280;59810;48.800;9.086;2023-05-19T13:32:31;98000.25;;;14.06;61.19